Terminal Aerodrome Forecast
Issued by NWS

Home | Current Version | Previous Version | Text Only | Print | Product List | Glossary On
Versions: 1 2 3 4 5 6 7 8 9 10 11 12 13 14 15 16 17 18 19 20 21 22 23 24 25 26 27 28 29 30 31 32 33 34 35 36 37 38 39 40 41 42 43 44 45 46 47 48 49
000
FTUS43 KGLD 250106 AAA
TAFMCK
TAF AMD
KMCK 250106Z 2501/2524 VRB06KT P6SM SCT060 SCT100 BKN200
     FM250200 VRB15G25KT 6SM -TSRA SCT015 BKN060CB
     FM250300 VRB05KT P6SM SCT060 SCT100 BKN200
     FM250600 VRB05KT P6SM SCT015
     FM250900 30007KT P6SM SCT004 SCT080 SCT200
     FM251600 34010KT P6SM BKN040
     FM252100 02008KT P6SM BKN040
     FM252300 06009KT P6SM SCT040=

USA.gov is the U.S. government's official web portal to all federal, state and local government web resources and services.